createdAt,value
2018-12-30T00:01:01.978Z,7.30
2018-12-30T00:03:33.113Z,8.10
2018-12-30T00:06:23.062Z,7.93
2018-12-30T00:09:05.768Z,8.27
2018-12-30T00:11:51.001Z,8.00
2018-12-30T00:14:33.385Z,8.57
2018-12-30T00:17:15.426Z,8.20
2018-12-30T00:19:57.298Z,8.77
2018-12-30T00:22:27.649Z,8.47
2018-12-30T00:25:09.695Z,8.57
2018-12-30T00:27:51.794Z,7.83
2018-12-30T00:30:34.013Z,8.27
2018-12-30T00:33:16.436Z,7.60
2018-12-30T00:35:58.457Z,7.27
2018-12-30T00:38:40.416Z,7.90
2018-12-30T00:41:22.469Z,8.40
2018-12-30T00:44:04.298Z,7.60
2018-12-30T00:46:46.529Z,7.40
2018-12-30T00:49:28.460Z,7.30
2018-12-30T00:52:10.376Z,7.03
2018-12-30T00:54:52.433Z,7.23
2018-12-30T00:57:34.526Z,7.23
2018-12-30T01:00:16.551Z,6.47
2018-12-30T01:02:58.673Z,6.60
2018-12-30T01:05:30.241Z,7.00
2018-12-30T01:08:20.287Z,6.90
2018-12-30T01:11:02.547Z,6.57
2018-12-30T01:13:32.866Z,6.60
2018-12-30T01:16:15.055Z,6.17
2018-12-30T01:18:57.210Z,5.67
2018-12-30T01:21:39.288Z,6.27
2018-12-30T01:24:21.280Z,6.07
2018-12-30T01:27:03.577Z,5.87
2018-12-30T01:29:45.538Z,4.57
2018-12-30T01:32:16.022Z,5.60
2018-12-30T01:35:05.508Z,5.00
2018-12-30T01:37:47.768Z,4.80
2018-12-30T01:40:29.597Z,3.90
2018-12-30T01:43:11.956Z,3.80
2018-12-30T01:45:54.054Z,3.90
2018-12-30T01:48:36.215Z,4.10
2018-12-30T01:51:18.291Z,3.20
2018-12-30T01:54:00.414Z,3.20
2018-12-30T01:56:43.190Z,3.10
2018-12-30T01:59:25.338Z,3.50
2018-12-30T02:02:07.397Z,3.07
2018-12-30T02:04:49.277Z,2.93
2018-12-30T02:07:31.119Z,3.03
2018-12-30T02:10:12.958Z,2.90
2018-12-30T02:12:54.854Z,3.47
2018-12-30T02:15:36.903Z,3.33
2018-12-30T02:18:18.905Z,3.50
2018-12-30T02:21:01.037Z,2.87
2018-12-30T02:23:43.072Z,2.40
2018-12-30T02:26:25.044Z,2.43
2018-12-30T02:29:06.994Z,2.50
2018-12-30T02:31:49.108Z,3.70
2018-12-30T02:34:31.327Z,3.90
2018-12-30T02:37:13.633Z,3.80
2018-12-30T02:39:55.452Z,3.17
2018-12-30T02:42:38.140Z,3.20
2018-12-30T02:45:21.337Z,2.60
2018-12-30T02:48:02.199Z,3.00
2018-12-30T02:50:44.525Z,2.40
2018-12-30T02:53:27.155Z,2.53
2018-12-30T02:56:09.504Z,2.40
2018-12-30T02:58:51.944Z,2.20
2018-12-30T03:01:33.698Z,2.40
2018-12-30T03:04:15.897Z,2.40
2018-12-30T03:06:58.065Z,2.30
2018-12-30T03:09:40.317Z,2.83
2018-12-30T03:12:22.232Z,3.00
2018-12-30T03:15:04.521Z,3.10
2018-12-30T03:17:46.188Z,3.30
2018-12-30T03:20:28.040Z,3.63
2018-12-30T03:23:09.854Z,3.10
2018-12-30T03:25:51.689Z,2.83
2018-12-30T03:28:33.636Z,3.30
2018-12-30T03:31:15.513Z,2.80
2018-12-30T03:33:57.774Z,2.90
2018-12-30T03:36:40.189Z,2.63
2018-12-30T03:39:22.544Z,2.60
2018-12-30T03:42:04.846Z,3.07
2018-12-30T03:44:47.197Z,2.23
2018-12-30T03:47:29.086Z,3.07
2018-12-30T03:49:59.453Z,2.63
2018-12-30T03:52:48.794Z,2.87
2018-12-30T03:55:30.719Z,2.60
2018-12-30T03:58:12.916Z,3.03
2018-12-30T04:00:55.225Z,3.13
2018-12-30T04:03:37.151Z,2.50
2018-12-30T04:06:19.349Z,2.70
2018-12-30T04:09:01.538Z,2.50
2018-12-30T04:11:43.702Z,2.47
2018-12-30T04:14:26.172Z,3.00
2018-12-30T04:16:56.450Z,3.13
2018-12-30T04:19:45.786Z,3.00
2018-12-30T04:22:27.331Z,2.63
2018-12-30T04:25:09.399Z,2.43
2018-12-30T04:27:51.747Z,2.50
2018-12-30T04:30:34.031Z,3.13
2018-12-30T04:33:16.010Z,3.07
2018-12-30T04:35:57.936Z,2.43
2018-12-30T04:38:39.810Z,2.80
2018-12-30T04:41:22.022Z,2.63
2018-12-30T04:44:04.358Z,2.77
2018-12-30T04:46:46.503Z,2.83
2018-12-30T04:49:28.550Z,2.93
2018-12-30T04:52:10.878Z,3.30
2018-12-30T04:54:53.118Z,3.50
2018-12-30T04:57:34.851Z,3.50
2018-12-30T05:00:17.066Z,3.50
2018-12-30T05:02:59.377Z,3.40
2018-12-30T05:05:41.425Z,3.40
2018-12-30T05:08:23.479Z,3.33
2018-12-30T05:11:05.679Z,3.23
2018-12-30T05:13:47.874Z,3.70
2018-12-30T05:16:29.646Z,3.60
2018-12-30T05:19:12.028Z,3.30
2018-12-30T05:21:54.173Z,3.30
2018-12-30T05:24:36.569Z,3.73
2018-12-30T05:27:18.547Z,3.40
2018-12-30T05:30:00.482Z,3.30
2018-12-30T05:32:42.622Z,3.43
2018-12-30T05:35:24.597Z,3.30
2018-12-30T05:38:06.679Z,3.27
2018-12-30T05:40:48.959Z,3.43
2018-12-30T05:43:30.855Z,3.97
2018-12-30T05:46:13.074Z,3.70
2018-12-30T05:48:54.800Z,3.93
2018-12-30T05:51:36.838Z,4.83
2018-12-30T05:54:19.026Z,4.07
2018-12-30T05:57:01.156Z,4.07
2018-12-30T05:59:43.196Z,3.70
2018-12-30T06:02:25.145Z,3.73
2018-12-30T06:05:07.087Z,3.63
2018-12-30T06:07:47.450Z,6.33
2018-12-30T06:10:29.711Z,4.10
2018-12-30T06:13:11.742Z,5.63
2018-12-30T06:15:53.553Z,6.20
2018-12-30T06:18:23.868Z,4.00
2018-12-30T06:21:13.210Z,4.27
2018-12-30T06:23:53.632Z,4.20
2018-12-30T06:26:36.040Z,3.57
2018-12-30T06:29:17.677Z,4.20
2018-12-30T06:31:59.782Z,3.97
2018-12-30T06:34:30.114Z,7.37
2018-12-30T06:37:19.469Z,4.93
2018-12-30T06:40:01.518Z,6.80
2018-12-30T06:42:43.443Z,6.13
2018-12-30T06:45:25.783Z,7.17
2018-12-30T06:48:08.051Z,5.37
2018-12-30T06:50:50.051Z,6.40
2018-12-30T06:53:32.293Z,6.73
2018-12-30T06:56:14.421Z,4.80
2018-12-30T06:58:56.592Z,4.23
2018-12-30T07:01:26.903Z,4.57
2018-12-30T07:04:08.567Z,5.10
2018-12-30T07:06:50.438Z,4.47
2018-12-30T07:09:32.586Z,5.13
2018-12-30T07:12:14.862Z,4.40
2018-12-30T07:14:45.189Z,4.23
2018-12-30T07:17:34.538Z,4.57
2018-12-30T07:20:16.688Z,4.50
2018-12-30T07:23:05.623Z,4.40
2018-12-30T07:25:42.581Z,4.50
2018-12-30T07:28:24.653Z,4.80
2018-12-30T07:31:06.895Z,4.20
2018-12-30T07:33:48.885Z,4.60
2018-12-30T07:36:31.059Z,4.30
2018-12-30T07:39:13.151Z,4.43
2018-12-30T07:41:55.402Z,4.03
2018-12-30T07:44:37.486Z,4.30
2018-12-30T07:47:19.689Z,4.37
2018-12-30T07:50:01.270Z,4.10
2018-12-30T07:52:43.310Z,4.23
2018-12-30T07:55:25.698Z,9.60
2018-12-30T07:58:07.596Z,8.17
2018-12-30T08:00:49.675Z,10.70
2018-12-30T08:03:31.610Z,5.10
2018-12-30T08:06:13.674Z,5.50
2018-12-30T08:08:55.926Z,5.53
2018-12-30T08:11:38.125Z,4.67
2018-12-30T08:14:20.211Z,5.60
2018-12-30T08:17:02.112Z,5.40
2018-12-30T08:19:44.000Z,5.87
2018-12-30T08:22:26.481Z,4.43
2018-12-30T08:25:08.686Z,4.40
2018-12-30T08:27:50.635Z,3.93
2018-12-30T08:30:21.004Z,4.03
2018-12-30T08:33:10.353Z,4.30
2018-12-30T08:35:52.258Z,4.63
2018-12-30T08:38:34.426Z,4.47
2018-12-30T08:41:16.802Z,4.27
2018-12-30T08:43:58.864Z,3.97
2018-12-30T08:46:41.018Z,4.33
2018-12-30T08:49:23.094Z,4.40
2018-12-30T08:52:05.274Z,4.90
2018-12-30T08:54:48.862Z,5.53
2018-12-30T08:57:31.429Z,6.17
2018-12-30T09:00:13.701Z,4.77
2018-12-30T09:02:55.814Z,5.03
2018-12-30T09:05:38.109Z,6.13
2018-12-30T09:08:08.908Z,5.10
2018-12-30T09:10:58.219Z,4.70
2018-12-30T09:13:40.143Z,5.13
2018-12-30T09:16:22.346Z,4.93
2018-12-30T09:19:04.541Z,5.20
2018-12-30T09:21:46.569Z,5.93
2018-12-30T09:24:28.966Z,4.70
2018-12-30T09:27:11.084Z,5.27
2018-12-30T09:29:53.346Z,5.80
2018-12-30T09:32:35.416Z,5.53
2018-12-30T09:35:08.237Z,5.67
2018-12-30T09:37:50.609Z,5.77
2018-12-30T09:40:32.642Z,5.80
2018-12-30T09:43:15.055Z,5.83
2018-12-30T09:45:57.373Z,5.40
2018-12-30T09:48:39.422Z,5.63
2018-12-30T09:51:21.527Z,5.83
2018-12-30T09:54:03.496Z,6.67
2018-12-30T09:56:45.710Z,5.73
2018-12-30T09:59:27.673Z,5.50
2018-12-30T10:02:09.477Z,6.07
2018-12-30T10:04:51.595Z,5.93
2018-12-30T10:07:34.495Z,6.40
2018-12-30T10:10:16.595Z,5.57
2018-12-30T10:12:58.917Z,5.90
2018-12-30T10:15:40.966Z,5.60
2018-12-30T10:18:23.190Z,5.47
2018-12-30T10:21:05.249Z,7.77
2018-12-30T10:23:52.951Z,10.97
2018-12-30T10:26:31.883Z,5.40
2018-12-30T10:29:14.971Z,4.53
2018-12-30T10:31:57.440Z,7.60
2018-12-30T10:34:39.629Z,5.30
2018-12-30T10:37:21.914Z,4.67
2018-12-30T10:40:04.001Z,4.13
2018-12-30T10:42:45.992Z,4.60
2018-12-30T10:45:28.382Z,4.80
2018-12-30T10:48:10.505Z,3.47
2018-12-30T10:50:52.580Z,3.70
2018-12-30T10:53:34.897Z,4.57
2018-12-30T10:56:17.013Z,5.30
2018-12-30T10:58:58.929Z,4.23
2018-12-30T11:01:41.158Z,4.30
2018-12-30T11:04:24.167Z,3.70
2018-12-30T11:07:05.979Z,4.20
2018-12-30T11:09:48.221Z,3.67
2018-12-30T11:12:30.953Z,5.00
2018-12-30T11:15:16.649Z,5.47
2018-12-30T11:17:58.754Z,7.57
2018-12-30T11:20:41.537Z,9.40
2018-12-30T11:23:23.868Z,10.17
2018-12-30T11:26:07.006Z,9.37
2018-12-30T11:28:49.299Z,16.40
2018-12-30T11:31:31.884Z,16.37
2018-12-30T11:34:12.534Z,18.90
2018-12-30T11:36:55.573Z,14.07
2018-12-30T11:39:37.699Z,13.20
2018-12-30T11:42:19.841Z,11.17
2018-12-30T11:45:03.374Z,10.70
2018-12-30T11:47:46.747Z,19.50
2018-12-30T11:50:29.234Z,10.90
2018-12-30T11:53:11.352Z,20.40
2018-12-30T11:55:53.628Z,6.30
2018-12-30T11:58:36.022Z,2.60
2018-12-30T12:01:18.073Z,3.20
2018-12-30T12:04:00.049Z,3.47
2018-12-30T12:09:32.442Z,4.80
2018-12-30T12:12:16.725Z,4.17
2018-12-30T12:17:40.578Z,2.93
2018-12-30T12:20:24.158Z,2.90
2018-12-30T12:23:06.487Z,3.30
2018-12-30T12:25:52.740Z,2.90
2018-12-30T12:28:36.701Z,3.03
2018-12-30T12:31:19.046Z,2.73
2018-12-30T12:34:01.620Z,3.00
2018-12-30T12:36:47.054Z,2.93
2018-12-30T12:39:31.238Z,2.73
2018-12-30T12:42:12.973Z,2.93
2018-12-30T12:44:54.961Z,3.00
2018-12-30T12:47:57.436Z,2.50
2018-12-30T12:50:41.688Z,2.60
2018-12-30T12:56:35.524Z,4.00
2018-12-30T12:59:17.906Z,6.40
2018-12-30T13:02:01.092Z,4.63
2018-12-30T13:04:43.734Z,5.23
2018-12-30T13:07:25.840Z,5.17
2018-12-30T13:10:08.432Z,5.13
2018-12-30T13:12:50.707Z,4.13
2018-12-30T13:15:35.236Z,4.00
2018-12-30T13:18:18.200Z,4.73
2018-12-30T13:21:00.917Z,3.60
2018-12-30T13:23:43.233Z,2.70
2018-12-30T13:26:25.448Z,2.80
2018-12-30T13:29:07.791Z,3.47
2018-12-30T13:31:50.190Z,3.10
2018-12-30T13:34:32.234Z,2.80
2018-12-30T13:37:48.784Z,2.60
2018-12-30T13:40:26.075Z,2.97
2018-12-30T13:43:08.157Z,3.47
2018-12-30T13:45:50.601Z,4.10
2018-12-30T13:48:33.097Z,6.90
2018-12-30T13:51:15.591Z,3.97
2018-12-30T13:53:57.841Z,4.60
2018-12-30T13:56:39.677Z,4.03
2018-12-30T13:59:22.237Z,4.67
2018-12-30T14:02:05.353Z,5.80
2018-12-30T14:04:50.595Z,16.20
2018-12-30T14:07:34.413Z,20.73
2018-12-30T14:10:17.463Z,5.87
2018-12-30T14:13:04.207Z,4.67
2018-12-30T14:15:50.971Z,3.60
2018-12-30T14:18:33.261Z,3.90
2018-12-30T14:21:15.897Z,3.93
2018-12-30T14:23:46.677Z,6.30
2018-12-30T14:26:29.117Z,4.63
2018-12-30T14:29:11.596Z,3.90
2018-12-30T14:31:54.037Z,3.70
2018-12-30T14:34:36.350Z,3.60
2018-12-30T14:37:22.057Z,3.63
2018-12-30T14:39:53.211Z,2.70
2018-12-30T14:42:37.038Z,3.20
2018-12-30T14:45:19.623Z,2.80
2018-12-30T14:47:54.670Z,2.70
2018-12-30T14:53:58.803Z,3.50
2018-12-30T14:56:41.347Z,2.80
2018-12-30T14:59:26.591Z,3.10
2018-12-30T15:02:13.060Z,3.60
2018-12-30T15:04:54.936Z,3.80
2018-12-30T15:07:38.112Z,3.87
2018-12-30T15:10:20.859Z,4.20
2018-12-30T15:12:51.357Z,5.63
2018-12-30T15:15:33.656Z,4.83
2018-12-30T15:18:16.452Z,3.40
2018-12-30T15:20:59.386Z,3.23
2018-12-30T15:23:40.738Z,3.60
2018-12-30T15:26:24.371Z,7.30
2018-12-30T15:29:07.045Z,4.40
2018-12-30T15:31:49.346Z,6.60
2018-12-30T15:34:34.633Z,6.57
2018-12-30T15:37:18.741Z,4.70
2018-12-30T15:40:00.915Z,5.33
2018-12-30T15:42:31.901Z,4.23
2018-12-30T15:45:13.427Z,5.10
2018-12-30T15:47:46.043Z,4.13
2018-12-30T15:50:54.987Z,3.17
2018-12-30T15:53:45.053Z,3.53
2018-12-30T15:56:27.293Z,4.03
2018-12-30T15:59:09.653Z,3.90
2018-12-30T16:01:51.613Z,3.60
2018-12-30T16:04:33.547Z,3.47
2018-12-30T16:07:15.567Z,3.47
2018-12-30T16:09:57.443Z,3.50
2018-12-30T16:12:39.510Z,3.27
2018-12-30T16:15:21.500Z,4.10
2018-12-30T16:18:06.878Z,4.20
2018-12-30T16:20:49.354Z,4.33
2018-12-30T16:23:32.090Z,4.53
2018-12-30T16:26:14.569Z,4.23
2018-12-30T16:28:56.883Z,4.17
2018-12-30T16:31:41.097Z,7.33
2018-12-30T16:34:23.141Z,8.23
2018-12-30T16:37:05.159Z,9.60
2018-12-30T16:39:47.182Z,24.20
2018-12-30T16:42:29.791Z,6.47
2018-12-30T16:45:12.153Z,5.67
2018-12-30T16:47:57.312Z,5.00
2018-12-30T16:50:41.026Z,9.07
2018-12-30T16:53:25.227Z,10.10
2018-12-30T16:56:08.047Z,10.63
2018-12-30T16:58:49.688Z,9.10
2018-12-30T17:01:31.585Z,8.57
2018-12-30T17:04:13.804Z,8.30
2018-12-30T17:06:56.886Z,8.93
2018-12-30T17:09:40.387Z,10.03
2018-12-30T17:12:32.166Z,14.10
2018-12-30T17:15:24.504Z,7.07
2018-12-30T17:18:07.039Z,7.30
2018-12-30T17:20:49.453Z,6.50
2018-12-30T17:23:35.767Z,6.47
2018-12-30T17:26:21.186Z,7.00
2018-12-30T17:29:06.509Z,5.20
2018-12-30T17:31:45.146Z,5.80
2018-12-30T17:34:30.299Z,6.20
2018-12-30T17:37:12.519Z,5.40
2018-12-30T17:40:12.976Z,6.13
2018-12-30T17:43:09.677Z,5.37
2018-12-30T17:45:49.652Z,6.67
2018-12-30T17:48:32.784Z,6.90
2018-12-30T17:51:17.453Z,10.47
2018-12-30T17:54:00.118Z,6.40
2018-12-30T17:56:42.515Z,6.03
2018-12-30T17:59:24.551Z,6.00
2018-12-30T18:02:06.979Z,5.80
2018-12-30T18:04:49.323Z,6.03
2018-12-30T18:07:31.959Z,5.23
2018-12-30T18:10:14.736Z,5.23
2018-12-30T18:12:56.567Z,6.37
2018-12-30T18:15:38.837Z,12.97
2018-12-30T18:18:20.776Z,8.90
2018-12-30T18:21:02.950Z,8.60
2018-12-30T18:23:45.258Z,6.50
2018-12-30T18:26:27.480Z,6.87
2018-12-30T18:29:08.508Z,6.20
2018-12-30T18:31:50.024Z,7.10
2018-12-30T18:34:32.432Z,6.57
2018-12-30T18:37:14.440Z,6.00
2018-12-30T18:39:56.618Z,5.90
2018-12-30T18:42:38.823Z,6.00
2018-12-30T18:45:20.953Z,6.13
2018-12-30T18:48:03.534Z,6.80
2018-12-30T18:50:45.619Z,6.90
2018-12-30T18:53:36.262Z,7.20
2018-12-30T18:56:20.805Z,6.97
2018-12-30T18:59:04.991Z,6.73
2018-12-30T19:01:49.715Z,6.40
2018-12-30T19:04:31.711Z,7.10
2018-12-30T19:07:13.974Z,6.90
2018-12-30T19:10:00.947Z,6.30
2018-12-30T19:12:43.383Z,6.30
2018-12-30T19:15:28.069Z,6.47
2018-12-30T19:18:09.881Z,6.37
2018-12-30T19:20:51.803Z,6.53
2018-12-30T19:23:34.483Z,6.53
2018-12-30T19:26:17.304Z,6.77
2018-12-30T19:28:58.873Z,7.20
2018-12-30T19:31:40.980Z,7.53
2018-12-30T19:34:23.196Z,8.17
2018-12-30T19:37:06.610Z,7.40
2018-12-30T19:39:48.624Z,8.07
2018-12-30T19:42:31.537Z,7.60
2018-12-30T19:45:02.378Z,8.23
2018-12-30T19:47:44.770Z,8.60
2018-12-30T19:50:29.481Z,8.03
2018-12-30T19:53:11.507Z,8.20
2018-12-30T19:55:53.610Z,6.90
2018-12-30T19:58:35.582Z,7.03
2018-12-30T20:01:17.398Z,7.97
2018-12-30T20:03:59.215Z,7.20
2018-12-30T20:06:41.395Z,7.00
2018-12-30T20:09:23.370Z,7.40
2018-12-30T20:12:06.509Z,8.03
2018-12-30T20:14:48.723Z,9.03
2018-12-30T20:17:33.965Z,10.67
2018-12-30T20:20:04.502Z,9.13
2018-12-30T20:26:00.681Z,8.70
2018-12-30T20:28:44.915Z,8.03
2018-12-30T20:31:26.936Z,8.33
2018-12-30T20:34:11.522Z,8.67
2018-12-30T20:36:57.050Z,7.90
2018-12-30T20:39:41.399Z,8.00
2018-12-30T20:42:24.265Z,8.27
2018-12-30T20:47:58.715Z,9.50
2018-12-30T20:50:47.244Z,9.33
2018-12-30T20:53:29.223Z,8.47
2018-12-30T20:56:12.677Z,8.43
2018-12-30T20:58:55.726Z,9.33
2018-12-30T21:01:52.691Z,8.43
2018-12-30T21:04:24.499Z,8.80
2018-12-30T21:07:07.951Z,8.97
2018-12-30T21:09:50.881Z,7.67
2018-12-30T21:12:34.511Z,8.60
2018-12-30T21:15:17.834Z,8.07
2018-12-30T21:18:00.720Z,8.10
2018-12-30T21:20:44.143Z,8.47
2018-12-30T21:23:26.666Z,8.00
2018-12-30T21:26:09.336Z,8.00
2018-12-30T21:28:55.781Z,8.20
2018-12-30T21:31:29.064Z,8.87
2018-12-30T21:37:15.384Z,8.53
2018-12-30T21:39:59.456Z,9.30
2018-12-30T21:42:43.874Z,9.00
2018-12-30T21:45:27.581Z,9.10
2018-12-30T21:48:10.968Z,10.07
2018-12-30T21:50:54.784Z,9.43
2018-12-30T21:53:41.592Z,9.37
2018-12-30T21:59:19.158Z,9.33
2018-12-30T22:02:05.466Z,9.73
2018-12-30T22:04:58.112Z,9.60
2018-12-30T22:07:29.037Z,10.37
2018-12-30T22:10:00.008Z,10.30
2018-12-30T22:12:33.707Z,10.43
2018-12-30T22:15:18.374Z,10.50
2018-12-30T22:17:55.104Z,10.93
2018-12-30T22:20:26.008Z,11.07
2018-12-30T22:22:56.755Z,10.67
2018-12-30T22:25:27.427Z,9.90
2018-12-30T22:27:58.009Z,12.10
2018-12-30T22:30:28.854Z,11.87
2018-12-30T22:32:59.580Z,12.50
2018-12-30T22:35:30.427Z,11.60
2018-12-30T22:38:03.123Z,12.63
2018-12-30T22:40:37.100Z,12.17
2018-12-30T22:43:07.706Z,12.47
2018-12-30T22:45:38.582Z,11.87
2018-12-30T22:48:09.508Z,11.57
2018-12-30T22:50:40.255Z,12.00
2018-12-30T22:53:15.740Z,11.80
2018-12-30T22:55:56.709Z,12.37
2018-12-30T22:58:28.701Z,11.90
2018-12-30T23:01:07.384Z,11.37
2018-12-30T23:03:38.932Z,11.17
2018-12-30T23:06:16.682Z,11.00
2018-12-30T23:08:46.842Z,12.00
2018-12-30T23:11:18.217Z,12.07
2018-12-30T23:13:49.436Z,12.10
2018-12-30T23:16:21.003Z,13.03
2018-12-30T23:18:52.585Z,11.97
2018-12-30T23:21:23.448Z,12.97
2018-12-30T23:23:54.371Z,13.13
2018-12-30T23:26:26.349Z,13.03
2018-12-30T23:28:58.268Z,12.60
2018-12-30T23:31:29.388Z,12.13
2018-12-30T23:34:02.228Z,12.53
2018-12-30T23:36:38.387Z,12.47
2018-12-30T23:39:13.686Z,12.37
2018-12-30T23:45:18.797Z,11.53
2018-12-30T23:47:59.314Z,11.67
2018-12-30T23:50:49.169Z,12.57
2018-12-30T23:53:57.253Z,10.73
2018-12-30T23:56:38.168Z,11.93
2018-12-30T23:59:13.604Z,11.13
